createdAt,value
2023-01-30T01:30:47.091Z,10.43
2023-01-30T01:33:15.276Z,9.77
2023-01-30T01:35:43.067Z,10.35
2023-01-30T01:38:10.750Z,9.18
2023-01-30T01:40:58.949Z,8.52
2023-01-30T01:43:26.640Z,10.32
2023-01-30T01:45:57.289Z,9.68
2023-01-30T01:48:29.421Z,9.30
2023-01-30T01:51:09.953Z,9.32
2023-01-30T01:53:42.648Z,9.25
2023-01-30T01:56:10.378Z,9.55
2023-01-30T01:58:42.930Z,8.85
2023-01-30T02:01:10.716Z,9.18
2023-01-30T02:03:41.840Z,9.82
2023-01-30T02:06:09.623Z,10.00
2023-01-30T02:08:40.241Z,9.05
2023-01-30T02:11:43.095Z,10.05
2023-01-30T02:14:11.644Z,9.82
2023-01-30T02:16:39.368Z,10.13
2023-01-30T02:19:21.640Z,10.73
2023-01-30T02:22:15.462Z,9.75
2023-01-30T02:25:21.397Z,11.60
2023-01-30T02:28:24.230Z,24.02
2023-01-30T02:31:22.832Z,15.75
2023-01-30T02:34:05.703Z,10.93
2023-01-30T02:36:40.893Z,12.85
2023-01-30T02:39:38.590Z,27.80
2023-01-30T02:42:15.986Z,13.25
2023-01-30T02:44:59.319Z,12.13
2023-01-30T02:47:37.484Z,14.90
2023-01-30T02:50:42.362Z,12.95
2023-01-30T02:53:11.030Z,13.25
2023-01-30T02:55:40.379Z,12.20
2023-01-30T02:58:08.075Z,10.85
2023-01-30T03:00:51.258Z,20.52
2023-01-30T03:03:44.156Z,31.42
2023-01-30T03:06:38.613Z,17.65
2023-01-30T03:09:45.574Z,21.15
2023-01-30T03:12:18.521Z,11.20
2023-01-30T03:14:59.597Z,24.92
2023-01-30T03:17:27.419Z,29.13
2023-01-30T03:19:55.498Z,16.13
2023-01-30T03:22:23.899Z,30.60
2023-01-30T03:24:53.098Z,16.25
2023-01-30T03:27:20.934Z,12.95
2023-01-30T03:29:49.952Z,11.63
2023-01-30T03:32:17.875Z,12.15
2023-01-30T03:34:46.010Z,11.73
2023-01-30T03:37:16.641Z,9.65
2023-01-30T03:39:44.603Z,11.98
2023-01-30T03:42:16.207Z,17.85
2023-01-30T03:44:44.185Z,14.25
2023-01-30T03:47:12.324Z,14.43
2023-01-30T03:49:40.917Z,13.20
2023-01-30T03:52:08.887Z,13.27
2023-01-30T03:54:36.777Z,13.23
2023-01-30T03:57:06.028Z,11.80
2023-01-30T03:59:34.562Z,14.77
2023-01-30T04:02:07.298Z,12.93
2023-01-30T04:04:35.431Z,12.80
2023-01-30T04:09:37.994Z,12.57
2023-01-30T04:12:07.695Z,11.48
2023-01-30T04:14:41.165Z,12.32
2023-01-30T04:17:26.895Z,14.80
2023-01-30T04:20:13.350Z,14.15
2023-01-30T04:22:46.643Z,13.68
2023-01-30T04:25:16.603Z,14.27
2023-01-30T04:27:44.954Z,14.23
2023-01-30T04:30:19.463Z,13.82
2023-01-30T04:32:49.917Z,14.27
2023-01-30T04:35:18.505Z,15.27
2023-01-30T04:37:46.365Z,14.32
2023-01-30T04:40:20.575Z,11.90
2023-01-30T04:42:48.585Z,13.13
2023-01-30T04:45:54.592Z,14.20
2023-01-30T04:48:23.774Z,13.10
2023-01-30T04:50:53.719Z,14.00
2023-01-30T04:53:21.723Z,15.13
2023-01-30T04:55:49.935Z,14.15
2023-01-30T04:58:19.508Z,12.93
2023-01-30T05:00:47.613Z,13.35
2023-01-30T05:03:15.681Z,12.70
2023-01-30T05:05:43.624Z,16.27
2023-01-30T05:08:11.306Z,16.38
2023-01-30T05:10:39.093Z,15.88
2023-01-30T05:13:07.639Z,15.05
2023-01-30T05:15:35.639Z,14.63
2023-01-30T05:18:03.387Z,13.73
2023-01-30T05:20:31.158Z,17.48
2023-01-30T05:22:59.033Z,14.77
2023-01-30T05:25:26.764Z,16.73
2023-01-30T05:27:54.490Z,7.07
2023-01-30T05:30:22.168Z,14.18
2023-01-30T05:32:49.974Z,26.77
2023-01-30T05:35:17.864Z,23.40
2023-01-30T05:37:51.093Z,12.73
2023-01-30T05:42:46.483Z,17.52
2023-01-30T05:45:15.608Z,20.88
2023-01-30T05:47:43.724Z,22.25
2023-01-30T05:50:12.073Z,21.25
2023-01-30T05:52:39.719Z,24.02
2023-01-30T05:55:07.754Z,15.40
2023-01-30T05:57:35.607Z,18.63
2023-01-30T06:00:04.962Z,21.67
2023-01-30T06:02:40.546Z,17.92
2023-01-30T06:05:09.024Z,19.20
2023-01-30T06:07:38.609Z,15.83
2023-01-30T06:10:07.094Z,20.00
2023-01-30T06:12:35.602Z,21.63
2023-01-30T06:15:03.871Z,20.42
2023-01-30T06:17:34.383Z,20.90
2023-01-30T06:20:02.629Z,20.30
2023-01-30T06:22:31.316Z,22.55
2023-01-30T06:24:59.280Z,23.42
2023-01-30T06:27:28.183Z,21.70
2023-01-30T06:29:56.055Z,23.58
2023-01-30T06:32:23.924Z,26.77
2023-01-30T06:34:51.827Z,20.42
2023-01-30T06:37:20.178Z,22.92
2023-01-30T06:39:48.222Z,22.52
2023-01-30T06:42:15.974Z,21.52
2023-01-30T06:44:43.870Z,17.55
2023-01-30T06:47:12.440Z,20.02
2023-01-30T06:49:40.696Z,19.77
2023-01-30T06:52:08.731Z,21.08
2023-01-30T06:54:37.274Z,19.13
2023-01-30T06:57:05.035Z,22.80
2023-01-30T06:59:32.768Z,12.35
2023-01-30T07:02:00.531Z,19.30
2023-01-30T07:04:28.458Z,21.73
2023-01-30T07:06:57.316Z,16.73
2023-01-30T07:09:26.037Z,19.15
2023-01-30T07:11:55.225Z,21.85
2023-01-30T07:14:22.968Z,19.98
2023-01-30T07:16:50.752Z,22.35
2023-01-30T07:19:18.686Z,20.38
2023-01-30T07:21:46.479Z,25.10
2023-01-30T07:24:14.323Z,19.45
2023-01-30T07:26:42.626Z,24.90
2023-01-30T07:29:10.401Z,14.63
2023-01-30T07:31:38.713Z,22.45
2023-01-30T07:34:07.153Z,22.08
2023-01-30T07:36:35.915Z,22.98
2023-01-30T07:39:07.314Z,21.15
2023-01-30T07:41:38.785Z,19.10
2023-01-30T07:44:12.702Z,21.10
2023-01-30T07:46:42.917Z,20.00
2023-01-30T07:49:11.429Z,15.20
2023-01-30T07:51:39.993Z,16.50
2023-01-30T07:54:08.236Z,17.90
2023-01-30T07:56:37.618Z,17.33
2023-01-30T07:59:06.572Z,18.48
2023-01-30T08:01:35.550Z,19.20
2023-01-30T08:04:04.825Z,15.05
2023-01-30T08:06:39.410Z,20.17
2023-01-30T08:09:09.254Z,19.42
2023-01-30T08:11:41.344Z,20.80
2023-01-30T08:14:10.632Z,16.67
2023-01-30T08:16:42.423Z,14.60
2023-01-30T08:19:10.649Z,18.95
2023-01-30T08:21:38.756Z,22.50
2023-01-30T08:24:07.336Z,16.80
2023-01-30T08:26:35.343Z,17.58
2023-01-30T08:29:03.673Z,21.80
2023-01-30T11:22:39.252Z,9.40
2023-01-30T11:25:13.737Z,8.20
2023-01-30T11:27:42.348Z,8.35
2023-01-30T11:30:15.313Z,8.65
2023-01-30T11:32:44.040Z,7.82
2023-01-30T11:35:14.598Z,7.65
2023-01-30T11:37:43.709Z,6.88
2023-01-30T11:40:31.309Z,8.70
2023-01-30T11:43:06.115Z,10.70
2023-01-30T11:45:39.060Z,10.45
2023-01-30T11:48:33.187Z,11.95
2023-01-30T11:53:45.220Z,7.05
2023-01-30T11:56:23.261Z,10.93
2023-01-30T11:59:01.224Z,11.48
2023-01-30T12:01:31.626Z,11.27
2023-01-30T12:03:59.500Z,11.20
2023-01-30T12:06:37.309Z,11.73
2023-01-30T12:09:05.314Z,11.32
2023-01-30T12:11:42.332Z,11.30
2023-01-30T12:14:40.521Z,9.25
2023-01-30T12:17:32.787Z,23.63
2023-01-30T12:20:20.439Z,16.63
2023-01-30T12:23:02.484Z,11.90
2023-01-30T12:25:37.329Z,29.58
2023-01-30T12:28:30.216Z,17.15
2023-01-30T12:31:08.920Z,15.55
2023-01-30T12:33:36.615Z,18.90
2023-01-30T12:36:13.105Z,24.00
2023-01-30T12:38:59.660Z,22.15
2023-01-30T12:41:36.066Z,22.67
2023-01-30T12:44:10.232Z,24.15
2023-01-30T12:46:51.445Z,22.10
2023-01-30T12:49:52.955Z,21.52
2023-01-30T12:52:39.192Z,26.10
2023-01-30T12:55:21.955Z,27.75
2023-01-30T12:58:11.739Z,27.23
2023-01-30T13:00:48.697Z,24.08
2023-01-30T13:03:34.940Z,17.75
2023-01-30T13:06:17.549Z,21.85
2023-01-30T13:09:06.210Z,25.75
2023-01-30T13:11:34.131Z,21.65
2023-01-30T13:14:14.203Z,21.63
2023-01-30T13:16:50.597Z,16.13
2023-01-30T13:19:41.051Z,21.80
2023-01-30T13:22:13.676Z,19.25
2023-01-30T13:24:54.587Z,19.35
2023-01-30T13:27:22.347Z,21.85
2023-01-30T13:29:53.866Z,24.45
2023-01-30T13:32:27.631Z,23.33
2023-01-30T13:34:57.070Z,23.27
2023-01-30T13:37:24.893Z,15.95
2023-01-30T13:39:58.805Z,18.88
2023-01-30T13:42:37.713Z,21.92
2023-01-30T13:45:05.828Z,16.15
2023-01-30T13:47:36.579Z,15.32
2023-01-30T13:50:31.081Z,12.45
2023-01-30T13:53:05.135Z,12.68
2023-01-30T13:55:44.983Z,13.43
2023-01-30T13:58:48.848Z,13.23
2023-01-30T14:01:16.608Z,15.27
2023-01-30T14:03:44.348Z,15.50
2023-01-30T14:06:30.161Z,13.27
2023-01-30T14:08:59.662Z,15.18
2023-01-30T14:11:51.698Z,14.38
2023-01-30T14:14:19.407Z,12.48
2023-01-30T14:16:51.769Z,12.40
2023-01-30T14:19:20.587Z,12.25
2023-01-30T14:21:58.758Z,13.07
2023-01-30T14:24:27.702Z,15.93
2023-01-30T14:26:58.259Z,16.50
2023-01-30T14:29:37.912Z,13.35
2023-01-30T14:32:14.767Z,34.00
2023-01-30T14:35:04.344Z,45.47
2023-01-30T14:37:39.439Z,54.90
2023-01-30T14:40:22.187Z,78.13
2023-01-30T14:43:20.725Z,40.10
2023-01-30T14:46:01.106Z,30.15
2023-01-30T14:48:32.178Z,32.58
2023-01-30T14:51:24.067Z,29.45
2023-01-30T14:54:20.654Z,46.90
2023-01-30T14:57:03.424Z,44.40
2023-01-30T15:00:03.209Z,24.90
2023-01-30T15:02:44.449Z,49.33
2023-01-30T15:05:14.803Z,33.65
2023-01-30T15:07:54.142Z,38.17
2023-01-30T15:10:52.835Z,30.58
2023-01-30T15:13:36.236Z,30.40
2023-01-30T15:16:43.547Z,40.22
2023-01-30T15:19:18.330Z,36.70
2023-01-30T15:21:58.000Z,27.50
2023-01-30T15:24:34.892Z,29.40
2023-01-30T15:27:09.710Z,25.58
2023-01-30T15:29:45.993Z,24.88
2023-01-30T15:32:21.528Z,35.08
2023-01-30T15:34:54.516Z,30.48
2023-01-30T15:37:35.372Z,23.77
2023-01-30T15:40:21.257Z,30.20
2023-01-30T15:43:09.112Z,21.70
2023-01-30T15:46:03.417Z,25.02
2023-01-30T15:48:39.361Z,29.23
2023-01-30T15:51:11.297Z,27.48
2023-01-30T15:53:43.693Z,23.45
2023-01-30T15:56:17.274Z,20.42
2023-01-30T15:58:44.859Z,23.25
2023-01-30T16:01:16.010Z,18.38
2023-01-30T16:03:43.754Z,20.23
2023-01-30T16:06:34.165Z,20.70
2023-01-30T16:09:20.537Z,19.17
2023-01-30T16:11:48.230Z,18.90
2023-01-30T16:14:17.165Z,23.52
2023-01-30T16:16:44.932Z,21.83
2023-01-30T16:19:29.724Z,19.73
2023-01-30T16:22:05.584Z,23.58
2023-01-30T16:24:34.466Z,22.83
2023-01-30T16:27:06.749Z,23.33
2023-01-30T16:29:50.719Z,23.70
2023-01-30T16:32:19.819Z,22.48
2023-01-30T16:34:48.048Z,24.08
2023-01-30T16:37:16.784Z,24.92
2023-01-30T16:39:46.579Z,24.85
2023-01-30T16:42:28.114Z,22.75
2023-01-30T16:47:39.063Z,23.63
2023-01-30T16:50:18.372Z,23.45
2023-01-30T16:52:47.740Z,24.60
2023-01-30T16:55:28.201Z,24.27
2023-01-30T16:57:58.696Z,25.63
2023-01-30T17:00:35.461Z,26.23
2023-01-30T17:03:07.628Z,34.42
2023-01-30T17:05:40.989Z,30.83
2023-01-30T17:08:39.983Z,33.60
2023-01-30T17:11:07.625Z,28.83
2023-01-30T17:13:42.615Z,28.38
2023-01-30T17:16:22.448Z,29.30
2023-01-30T17:18:53.560Z,29.77
2023-01-30T17:21:21.839Z,33.85
2023-01-30T17:23:52.847Z,33.88
2023-01-30T17:26:21.726Z,37.35
2023-01-30T17:28:49.517Z,34.58
2023-01-30T17:31:17.353Z,31.05
2023-01-30T17:33:45.271Z,37.13
2023-01-30T17:36:25.513Z,35.58
2023-01-30T17:38:54.873Z,27.38
2023-01-30T17:41:25.758Z,34.28
2023-01-30T17:43:53.301Z,29.40
2023-01-30T17:46:23.487Z,27.65
2023-01-30T17:48:51.950Z,46.38
2023-01-30T17:51:19.602Z,29.50
2023-01-30T17:53:47.419Z,28.35
2023-01-30T17:56:29.377Z,28.40
2023-01-30T17:58:56.989Z,25.63
2023-01-30T18:01:24.656Z,28.83
2023-01-30T18:03:52.392Z,24.20
2023-01-30T18:06:21.347Z,21.25
2023-01-30T18:08:49.339Z,23.60
2023-01-30T18:11:17.473Z,23.52
2023-01-30T18:13:47.864Z,23.25
2023-01-30T18:16:24.698Z,23.65
2023-01-30T18:18:52.834Z,23.38
2023-01-30T18:21:22.375Z,42.35
2023-01-30T18:23:50.472Z,21.35
2023-01-30T18:26:18.676Z,23.90
2023-01-30T18:28:46.987Z,23.45
2023-01-30T18:31:16.452Z,20.00
2023-01-30T18:33:47.560Z,27.48
2023-01-30T18:36:17.125Z,18.77
2023-01-30T18:38:45.083Z,17.83
2023-01-30T18:41:14.065Z,18.92
2023-01-30T18:43:42.802Z,18.40
2023-01-30T18:46:12.396Z,15.57
2023-01-30T18:48:41.598Z,18.63
2023-01-30T18:51:12.212Z,18.45
2023-01-30T18:53:39.912Z,16.50
2023-01-30T18:56:15.293Z,17.25
2023-01-30T18:58:45.005Z,21.33
2023-01-30T19:01:14.681Z,14.80
2023-01-30T19:03:42.554Z,16.73
2023-01-30T19:06:11.874Z,17.52
2023-01-30T19:08:42.513Z,14.50
2023-01-30T19:11:33.862Z,13.43
2023-01-30T19:14:01.630Z,15.20
2023-01-30T19:16:30.166Z,11.73
2023-01-30T19:18:57.953Z,18.33
2023-01-30T19:21:26.069Z,16.77
2023-01-30T19:23:54.124Z,11.57
2023-01-30T19:26:22.437Z,14.48
2023-01-30T19:28:50.497Z,13.73
2023-01-30T19:31:19.992Z,15.80
2023-01-30T19:33:52.485Z,14.13
2023-01-30T19:36:21.541Z,12.27
2023-01-30T19:38:49.815Z,16.20
2023-01-30T19:41:27.966Z,11.73
2023-01-30T19:43:56.160Z,12.95
2023-01-30T19:46:28.984Z,10.27
2023-01-30T19:48:57.455Z,11.13
2023-01-30T19:51:29.684Z,11.10
2023-01-30T19:54:00.744Z,11.20
2023-01-30T19:56:29.007Z,10.43
2023-01-30T19:58:58.489Z,10.00
2023-01-30T20:01:29.794Z,13.45
2023-01-30T20:03:57.769Z,13.05
2023-01-30T20:06:26.948Z,10.80
2023-01-30T20:08:56.664Z,14.25
2023-01-30T20:11:24.296Z,13.02
2023-01-30T20:13:52.249Z,13.68
2023-01-30T20:18:55.709Z,8.90
2023-01-30T20:21:23.655Z,10.13
2023-01-30T20:23:51.645Z,12.38
2023-01-30T20:26:27.671Z,9.65
2023-01-30T20:28:55.489Z,10.75
2023-01-30T20:31:30.042Z,10.60
2023-01-30T20:36:26.639Z,8.25
2023-01-30T20:38:55.609Z,11.02
2023-01-30T20:41:25.430Z,11.10
2023-01-30T20:43:54.517Z,11.57
2023-01-30T20:46:32.243Z,9.13
2023-01-30T20:49:03.533Z,7.32
2023-01-30T20:51:32.403Z,6.18
2023-01-30T20:54:01.676Z,9.90
2023-01-30T20:56:40.218Z,9.80
2023-01-30T20:59:08.038Z,8.77
2023-01-30T21:01:35.997Z,9.73
2023-01-30T21:04:08.353Z,12.05
2023-01-30T21:06:42.675Z,12.32
2023-01-30T21:09:17.936Z,14.30
2023-01-30T21:11:45.782Z,15.88
2023-01-30T21:14:14.764Z,7.97
2023-01-30T21:16:42.460Z,36.10
2023-01-30T21:19:14.231Z,51.45
2023-01-30T21:21:50.958Z,20.35
2023-01-30T21:24:27.769Z,16.83
2023-01-30T21:26:56.087Z,40.50
2023-01-30T21:29:24.879Z,13.65
2023-01-30T21:31:52.786Z,17.95
2023-01-30T21:34:20.458Z,38.45
2023-01-30T21:37:08.055Z,78.55
2023-01-30T21:39:54.138Z,117.97
2023-01-30T21:42:40.499Z,67.70
2023-01-30T21:45:08.643Z,18.10
2023-01-30T21:47:37.020Z,12.25
2023-01-30T21:50:05.195Z,8.77
2023-01-30T21:52:33.553Z,13.77
2023-01-30T21:55:01.231Z,15.85
2023-01-30T21:57:29.126Z,11.45
2023-01-30T21:59:57.022Z,17.67
2023-01-30T22:02:24.613Z,10.35
2023-01-30T22:04:52.397Z,10.32
2023-01-30T22:07:20.008Z,9.30
2023-01-30T22:09:49.016Z,9.00
2023-01-30T22:12:16.860Z,7.82
2023-01-30T22:14:44.754Z,6.65
2023-01-30T22:17:13.369Z,8.43
2023-01-30T22:19:41.478Z,10.25
2023-01-30T22:22:09.085Z,10.23
2023-01-30T22:24:38.619Z,8.88
2023-01-30T22:27:06.340Z,8.57
2023-01-30T22:29:35.366Z,7.88
2023-01-30T22:32:03.156Z,9.98
2023-01-30T22:34:31.388Z,9.77
2023-01-30T22:36:59.092Z,8.27
2023-01-30T22:39:26.962Z,9.70
2023-01-30T22:41:55.004Z,8.23
2023-01-30T22:44:23.303Z,8.80
2023-01-30T22:46:52.335Z,8.70
2023-01-30T22:49:22.900Z,9.73
2023-01-30T22:51:50.719Z,8.95
2023-01-30T22:54:18.952Z,12.68
2023-01-30T22:56:48.618Z,10.43
2023-01-30T22:59:16.625Z,9.77
2023-01-30T23:01:48.341Z,5.47
2023-01-30T23:04:17.707Z,8.07
2023-01-30T23:06:45.379Z,11.38
2023-01-30T23:09:18.018Z,10.20
2023-01-30T23:12:09.756Z,9.27
2023-01-30T23:14:38.131Z,10.45
2023-01-30T23:17:26.271Z,9.70
2023-01-30T23:19:54.734Z,10.30
2023-01-30T23:22:22.460Z,8.75
2023-01-30T23:24:51.494Z,10.00
2023-01-30T23:27:19.919Z,10.02
2023-01-30T23:29:47.573Z,9.88
2023-01-30T23:32:15.291Z,11.50
2023-01-30T23:34:42.989Z,11.00
2023-01-30T23:37:10.709Z,10.73
2023-01-30T23:39:40.040Z,10.65
2023-01-30T23:42:07.654Z,12.98
2023-01-30T23:44:35.513Z,11.30
2023-01-30T23:47:03.130Z,13.98
2023-01-30T23:49:30.959Z,25.73
2023-01-30T23:51:58.618Z,24.45
2023-01-30T23:54:27.355Z,11.15
2023-01-30T23:56:55.525Z,8.82
2023-01-30T23:59:23.325Z,19.48
